Αρχική σελίδα
METAR-TAF:

METAR-TAF

Αεροδρόμια :

Τζέντα, Σαουδική Αραβία

γεωγραφικό πλάτος: 21-42N, γεωγραφικό μήκος: 039-11E, υψόμετρο: 15 μ

Παρών καιρός

Η αναφορά έγινε 24 λεπτά πριν, στις 21:00 UTC
Άνεμος 4 kt από Β
Θερμοκρασία 32°C
Υγρασία 46%
Πίεση 1002 hPa
Ορατότητα 10 χλμ και άνω
Δεν υπάρχουν νέφη με βάση κάτω από τα 1500 μ. και δεν υπάρχουν νέφη σωρειτομελανίτες.

METAR: OEJN 172100Z 35004KT CAVOK 32/19 Q1002 NOSIG

Χρόνος: 00:24 (21:24 UTC)

Πρόγνωση Καιρού

Η αναφορά έγινε 4 ώρες και 24 λεπτά πριν, στις 17:00 UTC
Η πρόγνωση ισχύει από τις 17 στις 18 UTC έως τις 18 στις 24 UTC
Άνεμος 6 kt από BA
Ορατότητα: 7000 μ
Καθιστάμενος
από 17 στις 22 UTC έως τις 17 στις 24 UTC
Άνεμος 3 kt από μεταβλητές κατευθύνσεις
Καθιστάμενος
από 18 στις 06 UTC έως τις 18 στις 08 UTC
Άνεμος 14 kt από Δ

TAF: OEJN 171700Z 1718/1824 04006KT 7000 NSC BECMG 1722/1724 VRB03KT BECMG 1806/1808 27014KT

Μετεωρολογικές αναφορές και προγνώσεις για περισσότερα από 4000 αεροδρόμια (δελτία METAR και TAF).

Οι διαθέσιμοι σταθμοί απεικονίζονται στο χάρτη με κίτρινες και κόκκινες κουκκίδες.

Μετακινήστε το ποντίκι πάνω από τις κουκκίδες για να δείτε το όνομα του σταθμού.

Στη συνέχεια, κάντε κλικ για να δείτε τις μετεωρολογικές αναφορές και τις προγνώσεις καιρού.

Για να αλλάξετε το χάρτη: κάντε κλικ στα πράσινα κουμπιά με τον μαύρο σταυρό για να ζουμάρετε, στο πράσινο κουμπί με την παύλα για να αφαιρέσετε το ζουμ ή στα πράσινα βέλη για να αντιπαραβάλλετε χάρτες.


METAR-TAF: